Normand Flipper — 9V6929 — position and weather

sailwx.info

Track history (hours):
 
Tides and Currents Weather Stations Pressure Air Temp Water Temp Dewpoint Dewpoint Depression Visibility Wind Speed Wind Dir Waves Ship Positions

Normand Flipper

Last reported at 2014-Nov-12 13:23 UTC. Time now 2014-Dec-21 05:26 UTC.
Position N 41°01' E 028°60'.
Warning: this ship's position is 38 days out of date.

Length 89 m; draft 4.6 m.

Type: Cargo ship. MMSI: 566522000.

Date/timePositionNaut miles runAvg speedWind from/ knotsBaromVisibWave heightAir tempDewpointWater temp
2014-Nov-12 13:23N 41°01' E 028°60'10 9.8
2014-Nov-12 12:22N 40°52' E 028°53'7 0.9
2014-Nov-12 04:19N 40°48' E 028°45'0 0.0
2014-Nov-12 03:32N 40°48' E 028°45'0 0.0
2014-Nov-11 18:08N 40°48' E 028°45'266 9.6
2014-Nov-10 14:29N 37°50' E 024°29'1010.6
2014-Nov-10 13:33N 37°44' E 024°20'1311.1
2014-Nov-10 12:24N 37°34' E 024°09'1111.4
2014-Nov-10 11:28N 37°26' E 024°01'406 9.0
2014-Nov-08 14:19N 38°22' E 015°32'810.7
2014-Nov-08 13:32N 38°21' E 015°21'1111.0
2014-Nov-08 12:33N 38°20' E 015°08'5410.7
2014-Nov-08 07:29N 38°24' E 013°59'1010.7
2014-Nov-08 06:33N 38°25' E 013°46'1111.1
2014-Nov-08 05:33N 38°26' E 013°32'1010.1
2014-Nov-08 04:33N 38°27' E 013°19'10 9.8
2014-Nov-08 03:33N 38°28' E 013°06'1110.4
2014-Nov-08 02:33N 38°28' E 012°53'18910.9
2014-Nov-07 09:13N 38°36' E 008°52'711.4
2014-Nov-07 08:34N 38°36' E 008°42'2311.5
2014-Nov-07 06:32N 38°37' E 008°12'  
2014-Nov-04 15:33N 36°05' W 005°14'8 1.4
2014-Nov-04 10:04N 36°09' W 005°22'0 0.0
2014-Nov-04 09:04N 36°09' W 005°22'0 0.0
2014-Nov-04 05:03N 36°09' W 005°22'3 5.5
2014-Nov-04 04:33N 36°06' W 005°22'  
Track history (hours):
 
Tides and Currents Weather Stations Pressure Air Temp Water Temp Dewpoint Dewpoint Depression Visibility Wind Speed Wind Dir Waves Ship Positions

Normand Flipper

Last reported at 2014-Nov-12 13:23 UTC. Time now 2014-Dec-21 05:26 UTC.
Position N 41°01' E 028°60'.
Warning: this ship's position is 38 days out of date.

Length 89 m; draft 4.6 m.

Type: Cargo ship. MMSI: 566522000.

Date/timePositionNaut miles runAvg speedWind from/ knotsBaromVisibWave heightAir tempDewpointWater temp
2014-Nov-12 13:23N 41°01' E 028°60'10 9.8
2014-Nov-12 12:22N 40°52' E 028°53'7 0.9
2014-Nov-12 04:19N 40°48' E 028°45'0 0.0
2014-Nov-12 03:32N 40°48' E 028°45'0 0.0
2014-Nov-11 18:08N 40°48' E 028°45'266 9.6
2014-Nov-10 14:29N 37°50' E 024°29'1010.6
2014-Nov-10 13:33N 37°44' E 024°20'1311.1
2014-Nov-10 12:24N 37°34' E 024°09'1111.4
2014-Nov-10 11:28N 37°26' E 024°01'406 9.0
2014-Nov-08 14:19N 38°22' E 015°32'810.7
2014-Nov-08 13:32N 38°21' E 015°21'1111.0
2014-Nov-08 12:33N 38°20' E 015°08'5410.7
2014-Nov-08 07:29N 38°24' E 013°59'1010.7
2014-Nov-08 06:33N 38°25' E 013°46'1111.1
2014-Nov-08 05:33N 38°26' E 013°32'1010.1
2014-Nov-08 04:33N 38°27' E 013°19'10 9.8
2014-Nov-08 03:33N 38°28' E 013°06'1110.4
2014-Nov-08 02:33N 38°28' E 012°53'18910.9
2014-Nov-07 09:13N 38°36' E 008°52'711.4
2014-Nov-07 08:34N 38°36' E 008°42'2311.5
2014-Nov-07 06:32N 38°37' E 008°12'  
2014-Nov-04 15:33N 36°05' W 005°14'8 1.4
2014-Nov-04 10:04N 36°09' W 005°22'0 0.0
2014-Nov-04 09:04N 36°09' W 005°22'0 0.0
2014-Nov-04 05:03N 36°09' W 005°22'3 5.5
2014-Nov-04 04:33N 36°06' W 005°22'  

Dump ship's entire track history